sensor_id;sensor_type;location;lat;lon;timestamp;temperature;humidity
19025;DHT22;9645;51.448;6.260;2022-11-20T00:01:31;0.40;99.90
19025;DHT22;9645;51.448;6.260;2022-11-20T00:03:58;0.50;99.90
19025;DHT22;9645;51.448;6.260;2022-11-20T00:06:26;0.40;99.90
19025;DHT22;9645;51.448;6.260;2022-11-20T00:08:55;0.50;99.90
19025;DHT22;9645;51.448;6.260;2022-11-20T00:11:24;0.50;99.90
19025;DHT22;9645;51.448;6.260;2022-11-20T00:13:53;0.50;99.90
19025;DHT22;9645;51.448;6.260;2022-11-20T00:16:22;0.60;99.90
19025;DHT22;9645;51.448;6.260;2022-11-20T00:18:51;0.60;99.90
19025;DHT22;9645;51.448;6.260;2022-11-20T00:21:20;0.50;99.90
19025;DHT22;9645;51.448;6.260;2022-11-20T00:23:48;0.50;99.90
19025;DHT22;9645;51.448;6.260;2022-11-20T00:26:17;0.50;99.90
19025;DHT22;9645;51.448;6.260;2022-11-20T00:28:49;0.50;99.90
19025;DHT22;9645;51.448;6.260;2022-11-20T00:31:17;0.40;99.90
19025;DHT22;9645;51.448;6.260;2022-11-20T00:33:44;0.50;99.90
19025;DHT22;9645;51.448;6.260;2022-11-20T00:36:15;0.50;99.90
19025;DHT22;9645;51.448;6.260;2022-11-20T00:38:42;0.40;99.90
19025;DHT22;9645;51.448;6.260;2022-11-20T00:41:11;0.40;99.90
19025;DHT22;9645;51.448;6.260;2022-11-20T00:43:39;0.40;99.90
19025;DHT22;9645;51.448;6.260;2022-11-20T00:46:08;-3.10;99.90
19025;DHT22;9645;51.448;6.260;2022-11-20T00:48:35;0.40;99.90
19025;DHT22;9645;51.448;6.260;2022-11-20T00:51:02;0.40;99.90
19025;DHT22;9645;51.448;6.260;2022-11-20T00:53:31;0.30;99.90
19025;DHT22;9645;51.448;6.260;2022-11-20T00:55:59;0.50;99.90
19025;DHT22;9645;51.448;6.260;2022-11-20T00:58:30;0.30;99.90
19025;DHT22;9645;51.448;6.260;2022-11-20T01:01:00;0.30;99.90
19025;DHT22;9645;51.448;6.260;2022-11-20T01:03:29;0.40;99.90
19025;DHT22;9645;51.448;6.260;2022-11-20T01:05:59;0.60;99.90
19025;DHT22;9645;51.448;6.260;2022-11-20T01:08:31;0.40;99.90
19025;DHT22;9645;51.448;6.260;2022-11-20T01:11:01;0.40;99.90
19025;DHT22;9645;51.448;6.260;2022-11-20T01:13:29;0.30;99.90
19025;DHT22;9645;51.448;6.260;2022-11-20T01:16:08;0.30;99.90
19025;DHT22;9645;51.448;6.260;2022-11-20T01:18:36;0.20;99.90
19025;DHT22;9645;51.448;6.260;2022-11-20T01:21:05;0.20;99.90
19025;DHT22;9645;51.448;6.260;2022-11-20T01:23:35;0.20;99.90
19025;DHT22;9645;51.448;6.260;2022-11-20T01:26:04;0.20;99.90
19025;DHT22;9645;51.448;6.260;2022-11-20T01:28:31;0.20;99.90
19025;DHT22;9645;51.448;6.260;2022-11-20T01:30:59;0.20;99.90
19025;DHT22;9645;51.448;6.260;2022-11-20T01:33:26;0.20;99.90
19025;DHT22;9645;51.448;6.260;2022-11-20T01:35:53;0.20;99.90
19025;DHT22;9645;51.448;6.260;2022-11-20T01:38:20;0.10;99.90
19025;DHT22;9645;51.448;6.260;2022-11-20T01:40:55;0.10;99.90
19025;DHT22;9645;51.448;6.260;2022-11-20T01:43:23;0.00;99.90
19025;DHT22;9645;51.448;6.260;2022-11-20T01:46:00;0.00;99.90
19025;DHT22;9645;51.448;6.260;2022-11-20T01:48:32;-0.10;99.90
19025;DHT22;9645;51.448;6.260;2022-11-20T01:51:01;-0.20;99.90
19025;DHT22;9645;51.448;6.260;2022-11-20T01:53:31;-0.30;99.90
19025;DHT22;9645;51.448;6.260;2022-11-20T01:56:01;-0.30;99.90
19025;DHT22;9645;51.448;6.260;2022-11-20T01:58:33;-0.40;99.90
19025;DHT22;9645;51.448;6.260;2022-11-20T02:01:03;-0.60;99.90
19025;DHT22;9645;51.448;6.260;2022-11-20T02:03:31;-0.70;99.90
19025;DHT22;9645;51.448;6.260;2022-11-20T02:06:04;-0.80;99.90
19025;DHT22;9645;51.448;6.260;2022-11-20T02:08:33;-0.80;99.90
19025;DHT22;9645;51.448;6.260;2022-11-20T02:11:01;-0.90;99.90
19025;DHT22;9645;51.448;6.260;2022-11-20T02:13:28;-0.90;99.90
19025;DHT22;9645;51.448;6.260;2022-11-20T02:16:16;-1.00;99.90
19025;DHT22;9645;51.448;6.260;2022-11-20T02:18:46;-1.00;99.90
19025;DHT22;9645;51.448;6.260;2022-11-20T02:21:23;-1.00;99.90
19025;DHT22;9645;51.448;6.260;2022-11-20T02:24:11;-1.10;99.90
19025;DHT22;9645;51.448;6.260;2022-11-20T02:26:43;-1.10;99.90
19025;DHT22;9645;51.448;6.260;2022-11-20T02:29:10;-1.20;99.90
19025;DHT22;9645;51.448;6.260;2022-11-20T02:31:40;-1.20;99.90
19025;DHT22;9645;51.448;6.260;2022-11-20T02:34:07;-1.30;99.90
19025;DHT22;9645;51.448;6.260;2022-11-20T02:36:36;-1.40;99.90
19025;DHT22;9645;51.448;6.260;2022-11-20T02:39:06;-1.40;99.90
19025;DHT22;9645;51.448;6.260;2022-11-20T02:41:36;-1.40;99.90
19025;DHT22;9645;51.448;6.260;2022-11-20T02:44:05;-1.40;99.90
19025;DHT22;9645;51.448;6.260;2022-11-20T02:46:33;-1.50;99.90
19025;DHT22;9645;51.448;6.260;2022-11-20T02:49:01;-1.50;99.90
19025;DHT22;9645;51.448;6.260;2022-11-20T02:51:28;-1.50;99.90
19025;DHT22;9645;51.448;6.260;2022-11-20T02:53:55;-1.50;99.90
19025;DHT22;9645;51.448;6.260;2022-11-20T02:56:22;-1.50;99.90
19025;DHT22;9645;51.448;6.260;2022-11-20T02:58:51;-1.50;99.90
19025;DHT22;9645;51.448;6.260;2022-11-20T03:01:18;-1.40;99.90
19025;DHT22;9645;51.448;6.260;2022-11-20T03:03:45;-1.40;99.90
19025;DHT22;9645;51.448;6.260;2022-11-20T03:06:14;-1.40;99.90
19025;DHT22;9645;51.448;6.260;2022-11-20T03:08:41;-1.40;99.90
19025;DHT22;9645;51.448;6.260;2022-11-20T03:11:08;-1.40;99.90
19025;DHT22;9645;51.448;6.260;2022-11-20T03:13:36;-1.40;99.90
19025;DHT22;9645;51.448;6.260;2022-11-20T03:16:09;-1.40;99.90
19025;DHT22;9645;51.448;6.260;2022-11-20T03:21:05;-1.30;99.90
19025;DHT22;9645;51.448;6.260;2022-11-20T03:23:32;-1.20;99.90
19025;DHT22;9645;51.448;6.260;2022-11-20T03:26:10;-1.10;99.90
19025;DHT22;9645;51.448;6.260;2022-11-20T03:28:37;-1.10;99.90
19025;DHT22;9645;51.448;6.260;2022-11-20T03:31:10;-1.10;99.90
19025;DHT22;9645;51.448;6.260;2022-11-20T03:33:38;-1.00;99.90
19025;DHT22;9645;51.448;6.260;2022-11-20T03:36:07;-1.00;99.90
19025;DHT22;9645;51.448;6.260;2022-11-20T03:38:35;-0.90;99.90
19025;DHT22;9645;51.448;6.260;2022-11-20T03:41:03;-0.90;99.90
19025;DHT22;9645;51.448;6.260;2022-11-20T03:43:31;-0.80;99.90
19025;DHT22;9645;51.448;6.260;2022-11-20T03:48:27;-0.70;99.90
19025;DHT22;9645;51.448;6.260;2022-11-20T03:51:07;-0.70;99.90
19025;DHT22;9645;51.448;6.260;2022-11-20T03:53:34;-0.60;99.90
19025;DHT22;9645;51.448;6.260;2022-11-20T03:56:02;-0.60;99.90
19025;DHT22;9645;51.448;6.260;2022-11-20T03:58:29;-0.50;99.90
19025;DHT22;9645;51.448;6.260;2022-11-20T04:00:56;-0.60;99.90
19025;DHT22;9645;51.448;6.260;2022-11-20T04:03:23;-0.50;99.90
19025;DHT22;9645;51.448;6.260;2022-11-20T04:05:52;-0.50;99.90
19025;DHT22;9645;51.448;6.260;2022-11-20T04:08:18;-0.50;99.90
19025;DHT22;9645;51.448;6.260;2022-11-20T04:10:45;-0.40;99.90
19025;DHT22;9645;51.448;6.260;2022-11-20T04:13:13;-0.40;99.90
19025;DHT22;9645;51.448;6.260;2022-11-20T04:18:07;-0.30;99.90
19025;DHT22;9645;51.448;6.260;2022-11-20T04:20:34;-0.30;99.90
19025;DHT22;9645;51.448;6.260;2022-11-20T04:23:03;0.00;99.90
19025;DHT22;9645;51.448;6.260;2022-11-20T04:25:29;-0.20;99.90
19025;DHT22;9645;51.448;6.260;2022-11-20T04:27:56;-0.20;99.90
19025;DHT22;9645;51.448;6.260;2022-11-20T04:30:23;-0.20;99.90
19025;DHT22;9645;51.448;6.260;2022-11-20T04:32:50;-0.10;99.90
19025;DHT22;9645;51.448;6.260;2022-11-20T04:35:18;-0.10;99.90
19025;DHT22;9645;51.448;6.260;2022-11-20T04:37:45;0.00;99.90
19025;DHT22;9645;51.448;6.260;2022-11-20T04:40:13;0.00;99.90
19025;DHT22;9645;51.448;6.260;2022-11-20T04:42:40;0.00;99.90
19025;DHT22;9645;51.448;6.260;2022-11-20T04:45:08;0.10;99.90
19025;DHT22;9645;51.448;6.260;2022-11-20T04:47:35;0.10;99.90
19025;DHT22;9645;51.448;6.260;2022-11-20T04:50:02;-0.10;99.90
19025;DHT22;9645;51.448;6.260;2022-11-20T04:52:29;0.00;99.90
19025;DHT22;9645;51.448;6.260;2022-11-20T04:54:56;0.00;99.90
19025;DHT22;9645;51.448;6.260;2022-11-20T04:57:24;0.00;99.90
19025;DHT22;9645;51.448;6.260;2022-11-20T04:59:51;0.00;99.90
19025;DHT22;9645;51.448;6.260;2022-11-20T05:02:18;0.00;99.90
19025;DHT22;9645;51.448;6.260;2022-11-20T05:04:45;0.00;99.90
19025;DHT22;9645;51.448;6.260;2022-11-20T05:07:12;0.10;99.90
19025;DHT22;9645;51.448;6.260;2022-11-20T05:09:39;0.10;99.90
19025;DHT22;9645;51.448;6.260;2022-11-20T05:12:07;0.00;99.90
19025;DHT22;9645;51.448;6.260;2022-11-20T05:14:36;0.10;99.90
19025;DHT22;9645;51.448;6.260;2022-11-20T05:17:03;0.10;99.90
19025;DHT22;9645;51.448;6.260;2022-11-20T05:19:29;0.00;99.90
19025;DHT22;9645;51.448;6.260;2022-11-20T05:21:56;-0.10;99.90
19025;DHT22;9645;51.448;6.260;2022-11-20T05:24:23;-0.20;99.90
19025;DHT22;9645;51.448;6.260;2022-11-20T05:26:50;-0.20;99.90
19025;DHT22;9645;51.448;6.260;2022-11-20T05:29:17;-0.30;99.90
19025;DHT22;9645;51.448;6.260;2022-11-20T05:31:46;-0.10;99.90
19025;DHT22;9645;51.448;6.260;2022-11-20T05:34:13;-0.10;99.90
19025;DHT22;9645;51.448;6.260;2022-11-20T05:36:40;-0.10;99.90
19025;DHT22;9645;51.448;6.260;2022-11-20T05:41:34;-0.20;99.90
19025;DHT22;9645;51.448;6.260;2022-11-20T05:44:01;-0.10;99.90
19025;DHT22;9645;51.448;6.260;2022-11-20T05:46:28;-0.10;99.90
19025;DHT22;9645;51.448;6.260;2022-11-20T05:48:56;-0.10;99.90
19025;DHT22;9645;51.448;6.260;2022-11-20T05:51:24;-0.10;99.90
19025;DHT22;9645;51.448;6.260;2022-11-20T05:53:51;-0.10;99.90
19025;DHT22;9645;51.448;6.260;2022-11-20T05:56:19;-0.10;99.90
19025;DHT22;9645;51.448;6.260;2022-11-20T05:58:47;-0.20;99.90
19025;DHT22;9645;51.448;6.260;2022-11-20T06:01:17;-0.10;99.90
19025;DHT22;9645;51.448;6.260;2022-11-20T06:03:45;-0.10;99.90
19025;DHT22;9645;51.448;6.260;2022-11-20T06:06:15;-0.20;99.90
19025;DHT22;9645;51.448;6.260;2022-11-20T06:08:44;-0.20;99.90
19025;DHT22;9645;51.448;6.260;2022-11-20T06:11:13;-0.10;99.90
19025;DHT22;9645;51.448;6.260;2022-11-20T06:13:40;-0.20;99.90
19025;DHT22;9645;51.448;6.260;2022-11-20T06:18:35;-0.20;99.90
19025;DHT22;9645;51.448;6.260;2022-11-20T06:21:04;-0.20;99.90
19025;DHT22;9645;51.448;6.260;2022-11-20T06:23:34;-0.20;99.90
19025;DHT22;9645;51.448;6.260;2022-11-20T06:26:03;-0.20;99.90
19025;DHT22;9645;51.448;6.260;2022-11-20T06:28:36;-0.20;99.90
19025;DHT22;9645;51.448;6.260;2022-11-20T06:31:11;-0.10;99.90
19025;DHT22;9645;51.448;6.260;2022-11-20T06:33:39;-0.10;99.90
19025;DHT22;9645;51.448;6.260;2022-11-20T06:36:06;-0.10;99.90
19025;DHT22;9645;51.448;6.260;2022-11-20T06:38:34;-0.10;99.90
19025;DHT22;9645;51.448;6.260;2022-11-20T06:41:03;-0.20;99.90
19025;DHT22;9645;51.448;6.260;2022-11-20T06:43:30;-0.10;99.90
19025;DHT22;9645;51.448;6.260;2022-11-20T06:45:58;-0.20;99.90
19025;DHT22;9645;51.448;6.260;2022-11-20T06:48:26;-0.20;99.90
19025;DHT22;9645;51.448;6.260;2022-11-20T06:50:53;-0.20;99.90
19025;DHT22;9645;51.448;6.260;2022-11-20T06:53:21;-0.20;99.90
19025;DHT22;9645;51.448;6.260;2022-11-20T06:55:51;-0.20;99.90
19025;DHT22;9645;51.448;6.260;2022-11-20T06:58:18;-0.30;99.90
19025;DHT22;9645;51.448;6.260;2022-11-20T07:00:45;-0.30;99.90
19025;DHT22;9645;51.448;6.260;2022-11-20T07:03:12;-0.40;99.90
19025;DHT22;9645;51.448;6.260;2022-11-20T07:05:40;-0.40;99.90
19025;DHT22;9645;51.448;6.260;2022-11-20T07:08:07;-0.40;99.90
19025;DHT22;9645;51.448;6.260;2022-11-20T07:10:35;-0.40;99.90
19025;DHT22;9645;51.448;6.260;2022-11-20T07:13:03;-0.40;99.90
19025;DHT22;9645;51.448;6.260;2022-11-20T07:15:30;-0.40;99.90
19025;DHT22;9645;51.448;6.260;2022-11-20T07:17:59;-0.30;99.90
19025;DHT22;9645;51.448;6.260;2022-11-20T07:20:26;-0.20;99.90
19025;DHT22;9645;51.448;6.260;2022-11-20T07:22:54;-0.20;99.90
19025;DHT22;9645;51.448;6.260;2022-11-20T07:25:21;-0.10;99.90
19025;DHT22;9645;51.448;6.260;2022-11-20T07:27:48;-0.10;99.90
19025;DHT22;9645;51.448;6.260;2022-11-20T07:30:17;-0.10;99.90
19025;DHT22;9645;51.448;6.260;2022-11-20T07:32:46;0.00;99.90
19025;DHT22;9645;51.448;6.260;2022-11-20T07:35:13;0.00;99.90
19025;DHT22;9645;51.448;6.260;2022-11-20T07:37:40;0.00;99.90
19025;DHT22;9645;51.448;6.260;2022-11-20T07:40:08;0.10;99.90
19025;DHT22;9645;51.448;6.260;2022-11-20T07:42:35;4.10;99.90
19025;DHT22;9645;51.448;6.260;2022-11-20T07:45:02;0.30;99.90
19025;DHT22;9645;51.448;6.260;2022-11-20T07:47:36;0.30;99.90
19025;DHT22;9645;51.448;6.260;2022-11-20T07:50:03;0.40;99.90
19025;DHT22;9645;51.448;6.260;2022-11-20T07:52:30;0.50;99.90
19025;DHT22;9645;51.448;6.260;2022-11-20T07:54:57;0.60;99.90
19025;DHT22;9645;51.448;6.260;2022-11-20T07:57:24;0.70;99.90
19025;DHT22;9645;51.448;6.260;2022-11-20T07:59:51;0.80;99.90
19025;DHT22;9645;51.448;6.260;2022-11-20T08:02:18;1.00;99.90
19025;DHT22;9645;51.448;6.260;2022-11-20T08:04:46;1.10;99.90
19025;DHT22;9645;51.448;6.260;2022-11-20T08:07:13;1.20;99.90
19025;DHT22;9645;51.448;6.260;2022-11-20T08:09:40;1.40;99.90
19025;DHT22;9645;51.448;6.260;2022-11-20T08:12:07;1.30;99.90
19025;DHT22;9645;51.448;6.260;2022-11-20T08:14:52;1.30;99.90
19025;DHT22;9645;51.448;6.260;2022-11-20T08:17:20;1.30;99.90
19025;DHT22;9645;51.448;6.260;2022-11-20T08:19:49;1.30;99.90
19025;DHT22;9645;51.448;6.260;2022-11-20T08:22:16;1.20;99.90
19025;DHT22;9645;51.448;6.260;2022-11-20T08:24:43;1.20;99.90
19025;DHT22;9645;51.448;6.260;2022-11-20T08:27:10;1.20;99.90
19025;DHT22;9645;51.448;6.260;2022-11-20T08:32:04;1.40;99.90
19025;DHT22;9645;51.448;6.260;2022-11-20T08:34:31;1.50;99.90
19025;DHT22;9645;51.448;6.260;2022-11-20T08:37:01;1.90;99.90
19025;DHT22;9645;51.448;6.260;2022-11-20T08:39:28;2.30;99.90
19025;DHT22;9645;51.448;6.260;2022-11-20T08:41:55;2.40;99.90
19025;DHT22;9645;51.448;6.260;2022-11-20T08:44:22;2.70;99.90
19025;DHT22;9645;51.448;6.260;2022-11-20T08:46:49;4.40;99.90
19025;DHT22;9645;51.448;6.260;2022-11-20T08:49:16;3.20;99.90
19025;DHT22;9645;51.448;6.260;2022-11-20T08:51:43;3.50;99.90
19025;DHT22;9645;51.448;6.260;2022-11-20T08:54:11;3.60;99.90
19025;DHT22;9645;51.448;6.260;2022-11-20T08:56:39;4.10;99.90
19025;DHT22;9645;51.448;6.260;2022-11-20T08:59:06;4.10;99.90
19025;DHT22;9645;51.448;6.260;2022-11-20T09:01:32;4.20;99.90
19025;DHT22;9645;51.448;6.260;2022-11-20T09:04:00;4.30;99.90
19025;DHT22;9645;51.448;6.260;2022-11-20T09:06:29;4.40;99.90
19025;DHT22;9645;51.448;6.260;2022-11-20T09:08:56;4.70;99.90
19025;DHT22;9645;51.448;6.260;2022-11-20T09:11:24;4.70;99.90
19025;DHT22;9645;51.448;6.260;2022-11-20T09:13:51;4.90;99.90
19025;DHT22;9645;51.448;6.260;2022-11-20T09:16:18;5.20;99.90
19025;DHT22;9645;51.448;6.260;2022-11-20T09:18:45;5.40;99.90
19025;DHT22;9645;51.448;6.260;2022-11-20T09:21:13;5.50;99.90
19025;DHT22;9645;51.448;6.260;2022-11-20T09:23:40;5.90;99.90
19025;DHT22;9645;51.448;6.260;2022-11-20T09:26:10;5.70;99.90
19025;DHT22;9645;51.448;6.260;2022-11-20T09:28:39;5.70;99.90
19025;DHT22;9645;51.448;6.260;2022-11-20T09:31:06;5.60;99.90
19025;DHT22;9645;51.448;6.260;2022-11-20T09:33:34;5.40;99.90
19025;DHT22;9645;51.448;6.260;2022-11-20T09:36:02;4.90;99.90
19025;DHT22;9645;51.448;6.260;2022-11-20T09:38:29;4.90;99.90
19025;DHT22;9645;51.448;6.260;2022-11-20T09:40:58;4.70;99.90
19025;DHT22;9645;51.448;6.260;2022-11-20T09:43:41;4.40;99.90
19025;DHT22;9645;51.448;6.260;2022-11-20T09:46:16;4.30;99.90
19025;DHT22;9645;51.448;6.260;2022-11-20T09:48:52;4.30;99.90
19025;DHT22;9645;51.448;6.260;2022-11-20T09:51:31;4.30;99.90
19025;DHT22;9645;51.448;6.260;2022-11-20T09:54:10;4.20;99.90
19025;DHT22;9645;51.448;6.260;2022-11-20T09:56:40;4.20;99.90
19025;DHT22;9645;51.448;6.260;2022-11-20T09:59:18;4.30;99.90
19025;DHT22;9645;51.448;6.260;2022-11-20T10:01:47;4.20;99.90
19025;DHT22;9645;51.448;6.260;2022-11-20T10:04:17;4.10;99.90
19025;DHT22;9645;51.448;6.260;2022-11-20T10:06:53;4.00;99.90
19025;DHT22;9645;51.448;6.260;2022-11-20T10:09:27;4.00;99.90
19025;DHT22;9645;51.448;6.260;2022-11-20T10:12:07;3.90;99.90
19025;DHT22;9645;51.448;6.260;2022-11-20T10:14:47;3.80;99.90
19025;DHT22;9645;51.448;6.260;2022-11-20T10:17:22;3.60;99.90
19025;DHT22;9645;51.448;6.260;2022-11-20T10:20:02;3.70;99.90
19025;DHT22;9645;51.448;6.260;2022-11-20T10:22:46;3.70;99.90
19025;DHT22;9645;51.448;6.260;2022-11-20T10:25:19;3.60;99.90
19025;DHT22;9645;51.448;6.260;2022-11-20T10:28:11;3.70;99.90
19025;DHT22;9645;51.448;6.260;2022-11-20T10:30:44;3.80;99.90
19025;DHT22;9645;51.448;6.260;2022-11-20T10:33:17;3.80;99.90
19025;DHT22;9645;51.448;6.260;2022-11-20T10:35:49;3.80;99.90
19025;DHT22;9645;51.448;6.260;2022-11-20T10:38:21;3.80;99.90
19025;DHT22;9645;51.448;6.260;2022-11-20T10:40:53;3.80;99.90
19025;DHT22;9645;51.448;6.260;2022-11-20T10:43:42;3.70;99.90
19025;DHT22;9645;51.448;6.260;2022-11-20T10:46:15;3.70;99.90
19025;DHT22;9645;51.448;6.260;2022-11-20T10:48:43;3.60;99.90
19025;DHT22;9645;51.448;6.260;2022-11-20T10:51:21;3.60;99.90
19025;DHT22;9645;51.448;6.260;2022-11-20T10:53:58;3.60;99.90
19025;DHT22;9645;51.448;6.260;2022-11-20T10:56:33;3.70;99.90
19025;DHT22;9645;51.448;6.260;2022-11-20T10:59:22;3.60;99.90
19025;DHT22;9645;51.448;6.260;2022-11-20T11:01:53;3.60;99.90
19025;DHT22;9645;51.448;6.260;2022-11-20T11:04:33;3.60;99.90
19025;DHT22;9645;51.448;6.260;2022-11-20T11:07:08;3.70;99.90
19025;DHT22;9645;51.448;6.260;2022-11-20T11:09:39;3.70;99.90
19025;DHT22;9645;51.448;6.260;2022-11-20T11:12:08;3.70;99.90
19025;DHT22;9645;51.448;6.260;2022-11-20T11:14:43;3.70;99.90
19025;DHT22;9645;51.448;6.260;2022-11-20T11:17:25;3.70;99.90
19025;DHT22;9645;51.448;6.260;2022-11-20T11:20:01;3.70;99.90
19025;DHT22;9645;51.448;6.260;2022-11-20T11:22:31;3.80;99.90
19025;DHT22;9645;51.448;6.260;2022-11-20T11:24:58;3.80;99.90
19025;DHT22;9645;51.448;6.260;2022-11-20T11:27:25;3.80;99.90
19025;DHT22;9645;51.448;6.260;2022-11-20T11:30:03;3.80;99.90
19025;DHT22;9645;51.448;6.260;2022-11-20T11:32:32;3.80;99.90
19025;DHT22;9645;51.448;6.260;2022-11-20T11:35:00;3.80;99.90
19025;DHT22;9645;51.448;6.260;2022-11-20T11:37:31;3.90;99.90
19025;DHT22;9645;51.448;6.260;2022-11-20T11:40:03;3.90;99.90
19025;DHT22;9645;51.448;6.260;2022-11-20T11:42:31;3.90;99.90
19025;DHT22;9645;51.448;6.260;2022-11-20T11:45:00;4.00;99.90
19025;DHT22;9645;51.448;6.260;2022-11-20T11:47:37;3.90;99.90
19025;DHT22;9645;51.448;6.260;2022-11-20T11:50:16;3.90;99.90
19025;DHT22;9645;51.448;6.260;2022-11-20T11:52:48;4.00;99.90
19025;DHT22;9645;51.448;6.260;2022-11-20T11:55:21;4.10;99.90
19025;DHT22;9645;51.448;6.260;2022-11-20T11:58:10;4.20;99.90
19025;DHT22;9645;51.448;6.260;2022-11-20T12:00:49;4.30;99.90
19025;DHT22;9645;51.448;6.260;2022-11-20T12:03:24;4.30;99.90
19025;DHT22;9645;51.448;6.260;2022-11-20T12:05:59;4.50;99.90
19025;DHT22;9645;51.448;6.260;2022-11-20T12:08:32;4.50;99.90
19025;DHT22;9645;51.448;6.260;2022-11-20T12:11:13;4.40;99.90
19025;DHT22;9645;51.448;6.260;2022-11-20T12:13:50;4.40;99.90
19025;DHT22;9645;51.448;6.260;2022-11-20T12:16:20;4.30;99.90
19025;DHT22;9645;51.448;6.260;2022-11-20T12:18:51;4.30;99.90
19025;DHT22;9645;51.448;6.260;2022-11-20T12:21:21;4.30;99.90
19025;DHT22;9645;51.448;6.260;2022-11-20T12:24:03;4.30;99.90
19025;DHT22;9645;51.448;6.260;2022-11-20T12:26:55;4.30;99.90
19025;DHT22;9645;51.448;6.260;2022-11-20T12:36:00;4.30;99.90
19025;DHT22;9645;51.448;6.260;2022-11-20T12:38:51;4.30;99.90
19025;DHT22;9645;51.448;6.260;2022-11-20T12:41:33;4.30;99.90
19025;DHT22;9645;51.448;6.260;2022-11-20T12:44:40;4.30;99.90
19025;DHT22;9645;51.448;6.260;2022-11-20T12:47:34;4.30;99.90
19025;DHT22;9645;51.448;6.260;2022-11-20T12:50:14;4.30;99.90
19025;DHT22;9645;51.448;6.260;2022-11-20T12:52:48;4.30;99.90
19025;DHT22;9645;51.448;6.260;2022-11-20T12:55:33;4.30;99.90
19025;DHT22;9645;51.448;6.260;2022-11-20T12:58:08;4.30;99.90
19025;DHT22;9645;51.448;6.260;2022-11-20T13:00:43;4.30;99.90
19025;DHT22;9645;51.448;6.260;2022-11-20T13:03:42;4.30;99.90
19025;DHT22;9645;51.448;6.260;2022-11-20T13:06:14;4.30;99.90
19025;DHT22;9645;51.448;6.260;2022-11-20T13:08:48;4.30;99.90
19025;DHT22;9645;51.448;6.260;2022-11-20T13:11:20;4.30;99.90
19025;DHT22;9645;51.448;6.260;2022-11-20T13:14:04;4.30;99.90
19025;DHT22;9645;51.448;6.260;2022-11-20T13:16:41;4.30;99.90
19025;DHT22;9645;51.448;6.260;2022-11-20T13:19:17;4.40;99.90
19025;DHT22;9645;51.448;6.260;2022-11-20T13:21:47;4.30;99.90
19025;DHT22;9645;51.448;6.260;2022-11-20T13:24:25;4.40;99.90
19025;DHT22;9645;51.448;6.260;2022-11-20T13:27:18;4.30;99.90
19025;DHT22;9645;51.448;6.260;2022-11-20T13:29:47;4.40;99.90
19025;DHT22;9645;51.448;6.260;2022-11-20T13:32:29;4.30;99.90
19025;DHT22;9645;51.448;6.260;2022-11-20T13:35:00;4.30;99.90
19025;DHT22;9645;51.448;6.260;2022-11-20T13:37:31;4.30;99.90
19025;DHT22;9645;51.448;6.260;2022-11-20T13:40:22;4.30;99.90
19025;DHT22;9645;51.448;6.260;2022-11-20T13:43:00;4.30;99.90
19025;DHT22;9645;51.448;6.260;2022-11-20T13:45:29;4.40;99.90
19025;DHT22;9645;51.448;6.260;2022-11-20T13:47:57;4.40;99.90
19025;DHT22;9645;51.448;6.260;2022-11-20T13:50:39;4.50;99.90
19025;DHT22;9645;51.448;6.260;2022-11-20T13:53:19;4.50;99.90
19025;DHT22;9645;51.448;6.260;2022-11-20T13:55:54;4.50;99.90
19025;DHT22;9645;51.448;6.260;2022-11-20T13:58:30;4.40;99.90
19025;DHT22;9645;51.448;6.260;2022-11-20T14:01:10;4.40;99.90
19025;DHT22;9645;51.448;6.260;2022-11-20T14:03:41;4.40;99.90
19025;DHT22;9645;51.448;6.260;2022-11-20T14:06:13;4.40;99.90
19025;DHT22;9645;51.448;6.260;2022-11-20T14:08:44;4.40;99.90
19025;DHT22;9645;51.448;6.260;2022-11-20T14:11:16;4.40;99.90
19025;DHT22;9645;51.448;6.260;2022-11-20T14:13:55;4.40;99.90
19025;DHT22;9645;51.448;6.260;2022-11-20T14:16:23;4.50;99.90
19025;DHT22;9645;51.448;6.260;2022-11-20T14:18:50;4.50;99.90
19025;DHT22;9645;51.448;6.260;2022-11-20T14:21:25;4.50;99.90
19025;DHT22;9645;51.448;6.260;2022-11-20T14:23:53;4.50;99.90
19025;DHT22;9645;51.448;6.260;2022-11-20T14:26:22;4.50;99.90
19025;DHT22;9645;51.448;6.260;2022-11-20T14:28:50;4.50;99.90
19025;DHT22;9645;51.448;6.260;2022-11-20T14:31:23;4.50;99.90
19025;DHT22;9645;51.448;6.260;2022-11-20T14:33:51;4.50;99.90
19025;DHT22;9645;51.448;6.260;2022-11-20T14:36:20;4.50;99.90
19025;DHT22;9645;51.448;6.260;2022-11-20T14:38:48;4.50;99.90
19025;DHT22;9645;51.448;6.260;2022-11-20T14:41:18;4.40;99.90
19025;DHT22;9645;51.448;6.260;2022-11-20T14:43:49;4.50;99.90
19025;DHT22;9645;51.448;6.260;2022-11-20T14:46:17;4.50;99.90
19025;DHT22;9645;51.448;6.260;2022-11-20T14:48:47;4.50;99.90
19025;DHT22;9645;51.448;6.260;2022-11-20T14:51:30;4.50;99.90
19025;DHT22;9645;51.448;6.260;2022-11-20T14:54:09;4.50;99.90
19025;DHT22;9645;51.448;6.260;2022-11-20T14:56:39;4.50;99.90
19025;DHT22;9645;51.448;6.260;2022-11-20T14:59:11;4.50;99.90
19025;DHT22;9645;51.448;6.260;2022-11-20T15:01:38;4.50;99.90
19025;DHT22;9645;51.448;6.260;2022-11-20T15:04:10;4.50;99.90
19025;DHT22;9645;51.448;6.260;2022-11-20T15:06:48;4.50;99.90
19025;DHT22;9645;51.448;6.260;2022-11-20T15:09:15;4.50;99.90
19025;DHT22;9645;51.448;6.260;2022-11-20T15:11:53;4.50;99.90
19025;DHT22;9645;51.448;6.260;2022-11-20T15:14:23;4.50;99.90
19025;DHT22;9645;51.448;6.260;2022-11-20T15:16:50;4.60;99.90
19025;DHT22;9645;51.448;6.260;2022-11-20T15:19:19;4.60;99.90
19025;DHT22;9645;51.448;6.260;2022-11-20T15:21:48;4.60;99.90
19025;DHT22;9645;51.448;6.260;2022-11-20T15:24:16;4.50;99.90
19025;DHT22;9645;51.448;6.260;2022-11-20T15:26:44;4.60;99.90
19025;DHT22;9645;51.448;6.260;2022-11-20T15:29:12;4.60;99.90
19025;DHT22;9645;51.448;6.260;2022-11-20T15:31:45;4.60;99.90
19025;DHT22;9645;51.448;6.260;2022-11-20T15:34:13;4.60;99.90
19025;DHT22;9645;51.448;6.260;2022-11-20T15:36:41;4.60;99.90
19025;DHT22;9645;51.448;6.260;2022-11-20T15:39:08;4.60;99.90
19025;DHT22;9645;51.448;6.260;2022-11-20T15:41:37;4.60;99.90
19025;DHT22;9645;51.448;6.260;2022-11-20T15:44:13;4.50;99.90
19025;DHT22;9645;51.448;6.260;2022-11-20T15:46:41;4.50;99.90
19025;DHT22;9645;51.448;6.260;2022-11-20T15:49:13;4.50;99.90
19025;DHT22;9645;51.448;6.260;2022-11-20T15:51:44;4.50;99.90
19025;DHT22;9645;51.448;6.260;2022-11-20T15:54:13;4.50;99.90
19025;DHT22;9645;51.448;6.260;2022-11-20T15:56:41;4.50;99.90
19025;DHT22;9645;51.448;6.260;2022-11-20T15:59:09;4.50;99.90
19025;DHT22;9645;51.448;6.260;2022-11-20T16:01:36;4.50;99.90
19025;DHT22;9645;51.448;6.260;2022-11-20T16:04:07;4.60;99.90
19025;DHT22;9645;51.448;6.260;2022-11-20T16:06:37;4.50;99.90
19025;DHT22;9645;51.448;6.260;2022-11-20T16:09:03;4.50;99.90
19025;DHT22;9645;51.448;6.260;2022-11-20T16:11:30;4.50;99.90
19025;DHT22;9645;51.448;6.260;2022-11-20T16:13:57;4.50;99.90
19025;DHT22;9645;51.448;6.260;2022-11-20T16:16:43;4.60;99.90
19025;DHT22;9645;51.448;6.260;2022-11-20T16:19:12;4.50;99.90
19025;DHT22;9645;51.448;6.260;2022-11-20T16:21:41;4.50;99.90
19025;DHT22;9645;51.448;6.260;2022-11-20T16:24:09;4.50;99.90
19025;DHT22;9645;51.448;6.260;2022-11-20T16:26:38;4.50;99.90
19025;DHT22;9645;51.448;6.260;2022-11-20T16:29:06;4.50;99.90
19025;DHT22;9645;51.448;6.260;2022-11-20T16:31:33;4.50;99.90
19025;DHT22;9645;51.448;6.260;2022-11-20T16:34:03;4.50;99.90
19025;DHT22;9645;51.448;6.260;2022-11-20T16:36:40;4.50;99.90
19025;DHT22;9645;51.448;6.260;2022-11-20T16:39:08;4.50;99.90
19025;DHT22;9645;51.448;6.260;2022-11-20T16:41:35;4.60;99.90